Time;durP1;ratioP1;P1;durP2;ratioP2;P2;SDS_P1;SDS_P2;PMS_P1;PMS_P2;Temp;Humidity;BMP_temperature;BMP_pressure;BME280_temperature;BME280_humidity;BME280_pressure;Samples;Min_cycle;Max_cycle;Signal;HPM_P1;HPM_P2
2021/01/18 00:00:59;;;;;;;6.35;3.20;;;18.10;53.20;;;;;;5084175;28;20178;-58
2021/01/18 00:03:24;;;;;;;6.22;3.50;;;18.10;53.20;;;;;;5084404;28;20176;-59
2021/01/18 00:05:50;;;;;;;5.43;3.28;;;18.10;53.20;;;;;;5084109;28;21037;-57
2021/01/18 00:08:16;;;;;;;7.30;3.42;;;18.00;53.10;;;;;;5084317;28;20388;-56
2021/01/18 00:10:41;;;;;;;9.00;3.92;;;18.00;53.10;;;;;;5083946;28;20751;-59
2021/01/18 00:13:07;;;;;;;7.45;3.58;;;18.00;53.10;;;;;;5084228;28;20170;-60
2021/01/18 00:15:32;;;;;;;6.75;3.10;;;18.00;53.10;;;;;;5084054;28;20223;-60
2021/01/18 00:17:58;;;;;;;6.55;3.40;;;17.90;53.10;;;;;;5083910;28;20597;-60
2021/01/18 00:20:24;;;;;;;6.50;3.60;;;17.90;53.10;;;;;;5084089;28;20222;-60
2021/01/18 00:22:49;;;;;;;7.07;3.03;;;17.90;53.20;;;;;;5084109;28;20544;-59
2021/01/18 00:25:20;;;;;;;6.78;3.42;;;17.90;53.20;;;;;;5066147;28;20285;-59
2021/01/18 00:27:45;;;;;;;6.13;2.80;;;17.90;53.20;;;;;;5083957;28;20646;-56
2021/01/18 00:30:13;;;;;;;6.28;3.45;;;17.80;53.10;;;;;;5083843;28;20190;-57
2021/01/18 00:32:39;;;;;;;5.57;3.35;;;17.80;53.20;;;;;;5083939;28;20181;-57
2021/01/18 00:35:05;;;;;;;6.15;3.35;;;17.80;53.20;;;;;;5083794;28;20185;-60
2021/01/18 00:37:31;;;;;;;6.10;3.35;;;17.70;53.20;;;;;;5084179;28;20188;-58
2021/01/18 00:39:56;;;;;;;5.22;3.08;;;17.70;53.20;;;;;;5065721;28;20560;-62
2021/01/18 00:42:22;;;;;;;4.93;3.20;;;17.70;53.20;;;;;;5083973;28;20630;-60
2021/01/18 00:44:48;;;;;;;5.65;3.08;;;17.70;53.60;;;;;;5083618;28;20202;-60
2021/01/18 00:47:13;;;;;;;7.82;3.13;;;17.60;53.10;;;;;;5084531;28;20177;-61
2021/01/18 00:49:39;;;;;;;6.88;2.97;;;17.60;53.10;;;;;;5088045;28;20178;-58
2021/01/18 00:52:05;;;;;;;6.03;3.35;;;17.60;53.10;;;;;;5087691;28;20256;-59
2021/01/18 00:54:30;;;;;;;5.15;2.88;;;17.60;53.20;;;;;;5069417;28;20174;-60
2021/01/18 00:56:56;;;;;;;5.90;3.63;;;17.60;53.20;;;;;;5087628;28;20627;-59
2021/01/18 00:59:21;;;;;;;4.90;2.90;;;17.60;53.20;;;;;;5087710;28;20523;-59
2021/01/18 01:01:47;;;;;;;6.35;2.95;;;17.50;53.10;;;;;;5087539;28;20249;-58
2021/01/18 01:04:12;;;;;;;4.47;2.80;;;17.50;53.10;;;;;;5087345;28;20219;-57
2021/01/18 01:06:38;;;;;;;5.22;2.72;;;17.50;53.10;;;;;;5087325;28;20205;-59
2021/01/18 01:09:04;;;;;;;5.32;3.10;;;17.50;53.20;;;;;;5087410;28;20174;-60
2021/01/18 01:11:30;;;;;;;5.13;3.08;;;17.40;53.10;;;;;;5087515;28;20265;-59
2021/01/18 01:13:55;;;;;;;4.82;3.22;;;17.40;53.10;;;;;;5086917;28;20189;-60
2021/01/18 01:16:21;;;;;;;5.43;3.53;;;17.40;53.10;;;;;;5087428;28;20165;-59
2021/01/18 01:18:46;;;;;;;5.70;3.30;;;17.40;53.20;;;;;;5087279;28;20253;-59
2021/01/18 01:21:12;;;;;;;4.63;2.60;;;17.40;53.20;;;;;;5087280;28;20205;-60
2021/01/18 01:23:37;;;;;;;3.97;2.35;;;17.40;53.10;;;;;;5086937;28;20173;-60
2021/01/18 01:26:03;;;;;;;3.63;2.78;;;17.30;53.10;;;;;;5087177;28;20670;-59
2021/01/18 01:28:29;;;;;;;5.15;3.25;;;17.30;53.10;;;;;;5087487;28;20174;-59
2021/01/18 01:30:54;;;;;;;4.95;2.80;;;17.30;53.10;;;;;;5086976;28;20193;-58
2021/01/18 01:33:20;;;;;;;3.22;2.22;;;17.30;53.00;;;;;;5086908;28;20276;-59
2021/01/18 01:35:45;;;;;;;4.68;2.47;;;17.30;53.00;;;;;;5086676;28;20242;-58
2021/01/18 01:38:11;;;;;;;4.35;2.67;;;17.30;53.10;;;;;;5086705;28;20932;-58
2021/01/18 01:40:36;;;;;;;6.75;3.05;;;17.30;53.00;;;;;;5086451;28;20197;-59
2021/01/18 01:43:03;;;;;;;5.43;3.38;;;17.30;53.00;;;;;;5086788;28;20181;-60
2021/01/18 01:45:28;;;;;;;3.35;2.38;;;17.30;53.00;;;;;;5086496;28;20686;-61
2021/01/18 01:47:55;;;;;;;5.05;2.90;;;17.20;53.00;;;;;;5086405;28;20174;-59
2021/01/18 01:50:23;;;;;;;5.00;2.75;;;17.20;53.60;;;;;;5068593;28;20343;-59
2021/01/18 01:52:59;;;;;;;4.72;2.67;;;17.20;53.00;;;;;;5068081;28;20713;-60
2021/01/18 01:55:33;;;;;;;5.22;2.70;;;17.20;53.00;;;;;;5068232;28;20198;-57
2021/01/18 01:58:00;;;;;;;5.25;2.58;;;17.20;53.00;;;;;;5086505;28;20260;-59
2021/01/18 02:00:38;;;;;;;3.33;2.47;;;17.20;53.00;;;;;;5085768;28;20174;-57
2021/01/18 02:03:11;;;;;;;3.47;2.22;;;17.10;53.00;;;;;;5069506;28;20180;-58
2021/01/18 02:05:37;;;;;;;4.32;2.58;;;17.20;53.00;;;;;;5086460;28;20198;-60
2021/01/18 02:08:04;;;;;;;3.40;2.72;;;17.10;53.00;;;;;;5086440;28;20207;-58
2021/01/18 02:10:31;;;;;;;4.57;2.50;;;17.10;52.90;;;;;;5086292;28;20320;-60
2021/01/18 02:13:21;;;;;;;4.50;2.80;;;17.10;52.90;;;;;;5086345;28;20261;-60
2021/01/18 02:16:19;;;;;;;3.08;2.15;;;17.10;53.00;;;;;;5047698;28;20641;-59
2021/01/18 02:19:00;;;;;;;5.13;2.60;;;17.10;52.90;;;;;;5086163;28;20177;-60
2021/01/18 02:21:52;;;;;;;4.55;2.67;;;17.00;52.90;;;;;;5085439;28;20604;-58
2021/01/18 02:24:26;;;;;;;4.43;2.63;;;17.00;52.90;;;;;;5070139;28;20527;-60
2021/01/18 02:27:03;;;;;;;4.90;2.88;;;17.00;52.80;;;;;;5085850;28;20186;-59
2021/01/18 02:30:01;;;;;;;5.07;2.60;;;17.00;52.90;;;;;;5068004;28;20199;-59
2021/01/18 02:33:04;;;;;;;5.70;2.53;;;17.00;52.80;;;;;;5040913;28;20189;-55
2021/01/18 02:35:42;;;;;;;4.05;2.20;;;17.00;52.80;;;;;;5085878;28;20610;-58
2021/01/18 02:38:38;;;;;;;3.67;2.38;;;16.90;52.90;;;;;;5068638;28;20943;-59
2021/01/18 02:41:29;;;;;;;4.20;2.45;;;16.90;52.80;;;;;;5085243;28;20291;-60
2021/01/18 02:44:00;;;;;;;6.28;2.70;;;16.90;52.80;;;;;;5067532;28;20177;-61
2021/01/18 02:46:26;;;;;;;3.53;2.05;;;16.90;52.90;;;;;;5067822;28;20258;-59
2021/01/18 02:48:52;;;;;;;4.47;2.60;;;16.90;52.80;;;;;;5067185;28;20914;-59
2021/01/18 02:51:18;;;;;;;4.22;2.30;;;16.90;52.80;;;;;;5067200;28;20240;-59
2021/01/18 02:54:13;;;;;;;4.07;1.98;;;16.90;52.80;;;;;;5067456;28;20170;-57
2021/01/18 02:56:40;;;;;;;5.18;2.83;;;16.90;52.80;;;;;;5067629;28;20197;-58
2021/01/18 02:59:14;;;;;;;4.05;2.65;;;16.90;52.80;;;;;;5085288;28;20166;-56
2021/01/18 03:02:16;;;;;;;5.10;2.67;;;16.90;52.70;;;;;;5084630;28;20896;-57
2021/01/18 03:04:57;;;;;;;3.65;2.38;;;16.80;52.80;;;;;;5085254;28;20203;-59
2021/01/18 03:07:35;;;;;;;3.67;2.28;;;16.80;52.70;;;;;;5067630;28;20178;-59
2021/01/18 03:10:06;;;;;;;3.58;2.20;;;16.80;52.70;;;;;;5084299;28;20511;-57
2021/01/18 03:12:40;;;;;;;4.47;2.63;;;16.80;52.70;;;;;;5084934;28;20174;-59
2021/01/18 03:15:07;;;;;;;3.90;2.75;;;16.80;52.80;;;;;;5067001;28;20212;-57
2021/01/18 03:17:32;;;;;;;4.72;2.33;;;16.80;52.70;;;;;;5066823;28;20174;-59
2021/01/18 03:19:58;;;;;;;4.63;2.60;;;16.80;52.80;;;;;;5066687;28;20529;-59
2021/01/18 03:22:25;;;;;;;4.28;2.42;;;16.80;52.70;;;;;;5066630;28;20559;-58
2021/01/18 03:24:50;;;;;;;4.15;2.25;;;16.80;52.60;;;;;;5084662;28;20229;-56
2021/01/18 03:27:16;;;;;;;3.13;2.03;;;16.70;52.60;;;;;;5084244;28;20268;-57
2021/01/18 03:29:42;;;;;;;5.55;2.35;;;16.70;52.60;;;;;;5084653;28;20221;-58
2021/01/18 03:32:09;;;;;;;3.10;2.20;;;16.70;52.60;;;;;;5084470;28;20174;-58
2021/01/18 03:34:35;;;;;;;3.83;2.33;;;16.70;52.60;;;;;;5084438;28;20256;-53
2021/01/18 03:37:02;;;;;;;3.55;2.20;;;16.70;52.60;;;;;;5084597;28;20165;-58
2021/01/18 03:39:27;;;;;;;5.72;2.45;;;16.70;52.60;;;;;;5084359;28;20165;-60
2021/01/18 03:41:53;;;;;;;3.58;2.17;;;16.70;52.60;;;;;;5084051;28;20177;-58
2021/01/18 03:44:19;;;;;;;4.35;2.40;;;16.70;52.60;;;;;;5084544;28;20170;-60
2021/01/18 03:46:45;;;;;;;3.85;1.90;;;16.70;52.60;;;;;;5084432;28;20297;-60
2021/01/18 03:49:11;;;;;;;3.58;2.17;;;16.60;52.60;;;;;;5084575;28;20190;-60
2021/01/18 03:51:37;;;;;;;2.65;1.95;;;16.60;52.60;;;;;;5084205;28;20185;-60
2021/01/18 03:54:03;;;;;;;2.88;1.83;;;16.60;52.60;;;;;;5084523;28;20170;-60
2021/01/18 03:56:28;;;;;;;3.10;1.80;;;16.60;52.60;;;;;;5084611;28;20184;-59
2021/01/18 03:58:54;;;;;;;4.80;2.45;;;16.60;52.60;;;;;;5084357;28;20181;-58
2021/01/18 04:01:19;;;;;;;2.63;1.90;;;16.60;52.60;;;;;;5084159;28;20177;-59
2021/01/18 04:03:45;;;;;;;4.32;2.50;;;16.60;52.60;;;;;;5084266;28;20186;-59
2021/01/18 04:06:10;;;;;;;3.65;2.00;;;16.50;52.60;;;;;;5084168;28;20215;-59
2021/01/18 04:08:36;;;;;;;4.03;2.00;;;16.60;52.60;;;;;;5084814;28;20181;-57
2021/01/18 04:11:02;;;;;;;3.95;2.08;;;16.60;52.60;;;;;;5084306;28;20299;-60
2021/01/18 04:13:27;;;;;;;3.20;2.30;;;16.60;52.60;;;;;;5084215;28;20197;-60
2021/01/18 04:15:53;;;;;;;3.45;1.92;;;16.50;52.60;;;;;;5084419;28;20239;-60
2021/01/18 04:18:18;;;;;;;3.10;2.00;;;16.50;52.60;;;;;;5084261;28;20182;-60
2021/01/18 04:20:44;;;;;;;3.63;1.85;;;16.50;52.50;;;;;;5084266;28;20174;-59
2021/01/18 04:23:09;;;;;;;4.03;2.30;;;16.50;52.50;;;;;;5086123;28;21057;-60
2021/01/18 04:25:35;;;;;;;3.17;2.00;;;16.50;52.50;;;;;;5088318;28;21203;-58
2021/01/18 04:28:02;;;;;;;2.88;1.73;;;16.50;52.50;;;;;;5088389;28;20546;-58
2021/01/18 04:30:37;;;;;;;3.08;2.15;;;16.50;52.50;;;;;;5087935;28;20190;-56
2021/01/18 04:33:07;;;;;;;3.80;2.35;;;16.50;52.50;;;;;;5087934;28;20170;-57
2021/01/18 04:35:37;;;;;;;2.47;1.90;;;16.40;52.40;;;;;;5088174;28;20209;-60
2021/01/18 04:38:03;;;;;;;4.00;1.90;;;16.40;52.50;;;;;;5088120;28;20185;-59
2021/01/18 04:40:29;;;;;;;4.10;2.03;;;16.40;52.40;;;;;;5087860;28;20173;-58
2021/01/18 04:42:55;;;;;;;4.32;2.40;;;16.40;52.50;;;;;;5087797;28;20173;-60
2021/01/18 04:45:22;;;;;;;4.05;2.08;;;16.40;52.50;;;;;;5087787;28;20253;-60
2021/01/18 04:47:49;;;;;;;3.90;2.17;;;16.40;52.50;;;;;;5069907;28;20293;-59
2021/01/18 04:50:15;;;;;;;3.25;1.80;;;16.40;52.50;;;;;;5087661;28;20169;-61
2021/01/18 04:52:53;;;;;;;2.28;1.55;;;16.40;52.50;;;;;;5087858;28;20178;-57
2021/01/18 04:55:32;;;;;;;3.50;2.22;;;16.40;52.50;;;;;;5087564;28;20674;-60
2021/01/18 04:58:06;;;;;;;2.95;2.22;;;16.40;52.50;;;;;;5087403;28;20235;-59
2021/01/18 05:01:06;;;;;;;3.92;2.33;;;16.30;52.40;;;;;;5087591;28;20174;-57
2021/01/18 05:03:36;;;;;;;3.30;1.92;;;16.40;52.50;;;;;;5069767;28;20201;-59
2021/01/18 05:06:10;;;;;;;4.85;2.30;;;16.30;52.30;;;;;;5087260;28;20247;-58
2021/01/18 05:09:10;;;;;;;2.55;1.88;;;16.30;52.40;;;;;;5087337;28;20716;-59
2021/01/18 05:11:35;;;;;;;2.97;1.75;;;16.30;52.40;;;;;;5087464;28;20170;-60
2021/01/18 05:14:02;;;;;;;4.15;2.28;;;16.30;52.40;;;;;;5069453;28;20519;-61
2021/01/18 05:16:33;;;;;;;2.78;1.80;;;16.30;52.40;;;;;;5087110;28;20180;-60
2021/01/18 05:19:04;;;;;;;3.53;1.90;;;16.30;52.40;;;;;;5087135;28;20166;-59
2021/01/18 05:21:30;;;;;;;3.10;2.03;;;16.30;52.40;;;;;;5069698;28;20266;-59
2021/01/18 05:23:55;;;;;;;4.45;2.38;;;16.30;52.40;;;;;;5069285;28;20323;-61
2021/01/18 05:26:25;;;;;;;2.90;1.85;;;16.20;52.30;;;;;;5087243;28;20237;-60
2021/01/18 05:28:51;;;;;;;2.72;2.20;;;16.30;52.40;;;;;;5069142;28;20639;-59
2021/01/18 05:31:26;;;;;;;2.80;2.00;;;16.30;52.40;;;;;;5086854;28;20236;-58
2021/01/18 05:33:52;;;;;;;3.72;2.08;;;16.20;52.40;;;;;;5087213;28;20231;-59
2021/01/18 05:36:52;;;;;;;3.15;1.90;;;16.20;52.30;;;;;;5086985;28;20194;-60
2021/01/18 05:39:32;;;;;;;4.13;2.53;;;16.20;52.40;;;;;;5086738;28;21001;-58
2021/01/18 05:41:57;;;;;;;3.65;1.45;;;16.20;52.30;;;;;;5086619;28;20169;-60
2021/01/18 05:44:33;;;;;;;2.85;2.30;;;16.20;52.30;;;;;;5086635;28;20199;-61
2021/01/18 05:47:03;;;;;;;4.35;2.28;;;16.20;52.30;;;;;;5068476;28;20983;-60
2021/01/18 05:49:41;;;;;;;4.22;2.08;;;16.20;52.30;;;;;;5086582;28;20222;-60
2021/01/18 05:52:31;;;;;;;3.20;2.10;;;16.20;52.40;;;;;;5086510;28;20261;-60
2021/01/18 05:55:19;;;;;;;3.03;2.00;;;16.20;52.30;;;;;;5086482;28;20185;-60
2021/01/18 05:57:48;;;;;;;3.00;1.70;;;16.10;52.30;;;;;;5068723;28;20177;-60
2021/01/18 06:00:26;;;;;;;2.45;1.52;;;16.20;52.40;;;;;;5086372;28;20220;-56
2021/01/18 06:02:51;;;;;;;3.78;1.58;;;16.20;52.40;;;;;;5086408;28;20170;-55
2021/01/18 06:05:29;;;;;;;3.03;2.00;;;16.20;52.50;;;;;;5068109;28;20205;-58
2021/01/18 06:08:06;;;;;;;1.80;1.60;;;16.20;52.50;;;;;;5086109;28;20185;-59
2021/01/18 06:10:33;;;;;;;2.22;1.85;;;16.40;52.60;;;;;;5085998;28;20166;-57
2021/01/18 06:13:00;;;;;;;3.58;1.95;;;16.50;52.60;;;;;;5086441;28;20361;-58
2021/01/18 06:15:26;;;;;;;2.33;1.60;;;16.60;52.40;;;;;;5086394;28;20181;-60
2021/01/18 06:17:52;;;;;;;3.55;1.67;;;16.80;52.10;;;;;;5086114;28;21094;-60
2021/01/18 06:20:19;;;;;;;2.22;1.50;;;17.10;51.90;;;;;;5068176;28;20181;-60
2021/01/18 06:22:53;;;;;;;2.45;1.83;;;17.30;51.70;;;;;;5086124;28;20169;-59
2021/01/18 06:25:19;;;;;;;2.97;2.00;;;17.50;51.20;;;;;;5085838;28;20201;-60
2021/01/18 06:27:45;;;;;;;2.28;1.45;;;17.70;50.80;;;;;;5085812;28;20181;-60
2021/01/18 06:30:22;;;;;;;2.53;1.60;;;18.00;50.60;;;;;;5085645;28;20259;-59
2021/01/18 06:32:55;;;;;;;2.58;1.60;;;18.10;50.20;;;;;;5085973;28;20169;-56
2021/01/18 06:35:22;;;;;;;2.25;1.60;;;18.20;50.00;;;;;;5085739;28;20166;-56
2021/01/18 06:37:56;;;;;;;3.10;1.88;;;18.30;49.90;;;;;;5085555;28;20180;-59
2021/01/18 06:40:48;;;;;;;3.20;1.80;;;18.30;49.80;;;;;;5068580;28;20169;-60
2021/01/18 06:43:14;;;;;;;1.77;1.60;;;18.40;49.80;;;;;;5063154;28;20201;-59
2021/01/18 06:45:40;;;;;;;1.85;1.40;;;18.40;49.70;;;;;;5066430;28;20214;-61
2021/01/18 06:48:08;;;;;;;2.17;1.60;;;18.40;49.80;;;;;;5067505;28;20166;-60
2021/01/18 06:50:39;;;;;;;3.08;1.48;;;18.30;49.80;;;;;;5085622;28;20187;-58
2021/01/18 06:53:18;;;;;;;3.63;1.95;;;18.30;49.90;;;;;;5085808;28;20239;-60
2021/01/18 06:56:02;;;;;;;2.33;1.48;;;18.40;49.90;;;;;;5067229;28;20615;-58
2021/01/18 06:59:06;;;;;;;1.90;1.38;;;18.30;49.90;;;;;;5068175;28;20173;-59
2021/01/18 07:01:34;;;;;;;2.60;1.90;;;18.30;50.00;;;;;;5084589;28;20184;-59
2021/01/18 07:04:15;;;;;;;1.50;1.40;;;18.20;50.20;;;;;;5085077;28;20516;-60
2021/01/18 07:06:41;;;;;;;2.13;1.40;;;18.10;50.30;;;;;;5085158;28;20801;-59
2021/01/18 07:09:14;;;;;;;3.67;1.95;;;18.00;50.40;;;;;;5085287;28;20185;-59
2021/01/18 07:11:40;;;;;;;3.13;1.70;;;18.00;50.60;;;;;;5085007;28;20165;-60
2021/01/18 07:14:10;;;;;;;3.40;1.73;;;18.00;50.70;;;;;;5085039;28;20181;-60
2021/01/18 07:16:36;;;;;;;3.53;1.65;;;17.90;50.70;;;;;;5085129;28;20173;-60
2021/01/18 07:19:03;;;;;;;3.60;1.77;;;17.90;50.70;;;;;;5067028;28;20170;-60
2021/01/18 07:21:30;;;;;;;3.25;1.77;;;17.90;50.70;;;;;;5084502;28;20181;-60
2021/01/18 07:23:57;;;;;;;2.53;1.58;;;17.90;50.70;;;;;;5084910;28;20170;-60
2021/01/18 07:26:56;;;;;;;2.67;1.55;;;18.00;50.60;;;;;;5084255;28;20249;-59
2021/01/18 07:29:23;;;;;;;3.25;1.80;;;18.00;50.60;;;;;;5084449;28;20288;-57
2021/01/18 07:31:53;;;;;;;2.28;1.65;;;17.80;50.60;;;;;;5084632;28;20166;-60
2021/01/18 07:34:21;;;;;;;2.10;1.48;;;17.80;50.80;;;;;;5084087;28;20605;-59
2021/01/18 07:36:46;;;;;;;2.55;1.40;;;17.70;50.90;;;;;;5084183;28;20186;-59
2021/01/18 07:39:33;;;;;;;1.80;1.33;;;17.60;51.10;;;;;;5084686;28;20265;-60
2021/01/18 07:42:00;;;;;;;2.60;1.63;;;17.60;51.10;;;;;;5084606;28;20231;-60
2021/01/18 07:44:33;;;;;;;2.38;1.73;;;17.60;51.10;;;;;;5084272;28;20740;-60
2021/01/18 07:46:59;;;;;;;3.97;1.58;;;17.70;51.10;;;;;;5084005;28;20674;-60
2021/01/18 07:49:34;;;;;;;3.60;1.90;;;17.70;51.00;;;;;;5084422;28;20172;-60
2021/01/18 07:52:19;;;;;;;2.40;1.90;;;17.70;51.00;;;;;;5084618;28;20173;-60
2021/01/18 07:54:45;;;;;;;3.53;1.70;;;17.80;50.90;;;;;;5066515;28;20247;-60
2021/01/18 07:57:30;;;;;;;1.75;1.35;;;17.70;50.90;;;;;;5083421;28;20649;-59
2021/01/18 08:00:25;;;;;;;2.25;1.38;;;17.60;50.90;;;;;;5084685;28;20170;-57
2021/01/18 08:02:55;;;;;;;2.72;1.58;;;17.60;51.00;;;;;;5084305;28;20170;-59
2021/01/18 08:05:21;;;;;;;1.98;1.52;;;17.50;51.10;;;;;;5065762;28;20201;-60
2021/01/18 08:08:05;;;;;;;2.58;1.35;;;17.50;51.30;;;;;;5084572;28;20700;-60
2021/01/18 08:10:53;;;;;;;3.42;1.58;;;17.50;51.30;;;;;;5084367;28;20170;-59
2021/01/18 08:13:44;;;;;;;2.65;1.70;;;17.50;51.30;;;;;;5083923;28;20303;-59
2021/01/18 08:16:14;;;;;;;2.65;1.65;;;17.50;51.40;;;;;;5084204;28;20169;-67
2021/01/18 08:18:58;;;;;;;3.83;1.65;;;17.50;51.40;;;;;;5083921;28;20199;-61
2021/01/18 08:21:33;;;;;;;4.22;1.75;;;17.50;51.50;;;;;;5083902;28;20511;-61
2021/01/18 08:24:12;;;;;;;4.50;1.70;;;17.40;51.80;;;;;;5083858;28;20173;-62
2021/01/18 08:26:54;;;;;;;3.63;2.00;;;17.40;52.30;;;;;;5083940;28;21095;-60
2021/01/18 08:29:45;;;;;;;3.95;1.95;;;17.40;52.60;;;;;;5066662;28;20193;-60
2021/01/18 08:32:22;;;;;;;5.40;2.08;;;17.30;52.70;;;;;;5084013;28;20177;-65
2021/01/18 08:34:55;;;;;;;5.30;2.00;;;17.30;53.50;;;;;;5083842;28;20220;-65
2021/01/18 08:37:21;;;;;;;5.65;1.95;;;17.20;53.40;;;;;;5067098;28;20218;-64
2021/01/18 08:40:09;;;;;;;3.08;1.90;;;17.20;53.30;;;;;;5083802;28;20182;-64
2021/01/18 08:42:36;;;;;;;5.22;2.10;;;17.30;53.20;;;;;;5083949;28;20176;-63
2021/01/18 08:45:27;;;;;;;3.17;2.00;;;17.30;53.10;;;;;;5083558;28;20660;-63
2021/01/18 08:47:59;;;;;;;2.78;1.60;;;17.40;53.00;;;;;;5083788;28;20268;-64
2021/01/18 08:50:29;;;;;;;4.18;1.90;;;17.40;52.90;;;;;;5065880;28;20176;-64
2021/01/18 08:52:58;;;;;;;5.10;2.10;;;17.40;52.80;;;;;;5083629;28;20951;-64
2021/01/18 08:55:30;;;;;;;6.15;2.38;;;17.30;52.70;;;;;;5065903;28;20170;-64
2021/01/18 08:58:03;;;;;;;5.63;2.28;;;17.30;52.80;;;;;;5083649;28;20177;-63
2021/01/18 09:00:37;;;;;;;5.55;2.03;;;17.30;52.70;;;;;;5083802;28;20635;-64
2021/01/18 09:03:03;;;;;;;4.03;2.40;;;17.20;52.80;;;;;;5083591;28;20223;-63
2021/01/18 09:05:29;;;;;;;4.43;2.20;;;17.20;52.90;;;;;;5083514;28;20197;-64
2021/01/18 09:07:54;;;;;;;3.28;1.98;;;17.20;53.10;;;;;;5083269;28;20178;-64
2021/01/18 09:10:21;;;;;;;3.05;2.00;;;17.20;53.10;;;;;;5069244;28;20170;-63
2021/01/18 09:12:48;;;;;;;5.60;2.33;;;17.20;53.00;;;;;;5087089;28;20188;-63
2021/01/18 09:15:14;;;;;;;4.25;2.08;;;17.30;53.10;;;;;;5086866;28;20180;-62
2021/01/18 09:17:40;;;;;;;2.63;1.60;;;17.40;53.00;;;;;;5086213;28;20182;-63
2021/01/18 09:20:07;;;;;;;3.47;1.98;;;17.40;52.80;;;;;;5068441;28;20181;-64
2021/01/18 09:22:33;;;;;;;3.85;1.65;;;17.40;52.90;;;;;;5068486;28;20185;-63
2021/01/18 09:24:59;;;;;;;5.68;2.10;;;17.40;52.80;;;;;;5051289;28;20246;-64
2021/01/18 09:27:24;;;;;;;5.63;2.03;;;17.40;52.80;;;;;;5051526;28;20635;-64
2021/01/18 09:30:19;;;;;;;3.22;1.95;;;17.40;52.90;;;;;;5067244;28;20634;-64
2021/01/18 09:32:58;;;;;;;4.25;2.15;;;17.30;52.90;;;;;;5064133;28;20182;-62
2021/01/18 09:35:25;;;;;;;3.42;2.10;;;17.30;53.00;;;;;;5084032;28;20225;-62
2021/01/18 09:37:51;;;;;;;6.13;2.20;;;17.40;53.10;;;;;;5085050;28;20165;-63
2021/01/18 09:40:17;;;;;;;2.80;1.90;;;17.40;53.00;;;;;;5085083;28;20188;-63
2021/01/18 09:42:46;;;;;;;3.83;1.90;;;17.40;52.90;;;;;;5085176;28;20173;-62
2021/01/18 09:45:14;;;;;;;4.18;1.80;;;17.40;52.90;;;;;;5085051;28;21053;-63
2021/01/18 09:47:40;;;;;;;2.92;1.73;;;17.40;52.90;;;;;;5085021;28;20174;-62
2021/01/18 09:50:15;;;;;;;5.20;2.38;;;17.40;53.00;;;;;;5067253;28;20388;-62
2021/01/18 09:52:42;;;;;;;3.63;2.03;;;17.40;53.00;;;;;;5083623;28;20178;-63
2021/01/18 09:55:09;;;;;;;3.45;1.98;;;17.30;53.00;;;;;;5067427;28;20227;-63
2021/01/18 09:57:37;;;;;;;4.57;2.00;;;17.30;53.00;;;;;;5075761;28;20639;-63
2021/01/18 10:00:04;;;;;;;3.17;2.13;;;17.30;53.10;;;;;;5067191;28;20166;-63
2021/01/18 10:02:29;;;;;;;3.42;2.00;;;17.30;53.10;;;;;;5066788;28;20281;-64
2021/01/18 10:04:55;;;;;;;4.03;1.98;;;17.30;53.20;;;;;;5084715;28;20257;-64
2021/01/18 10:07:21;;;;;;;4.63;2.13;;;17.30;53.00;;;;;;5050133;28;20662;-64
2021/01/18 10:09:47;;;;;;;3.65;2.15;;;17.30;53.50;;;;;;5066862;28;20180;-64
2021/01/18 10:12:13;;;;;;;2.67;1.90;;;17.40;52.80;;;;;;5084825;28;20170;-63
2021/01/18 10:14:38;;;;;;;4.53;2.25;;;17.40;52.80;;;;;;5066926;28;20546;-63
2021/01/18 10:17:06;;;;;;;3.72;2.13;;;17.40;52.90;;;;;;5066558;28;20255;-63
2021/01/18 10:19:34;;;;;;;2.55;2.22;;;17.40;52.90;;;;;;5084537;28;20685;-63
2021/01/18 10:22:01;;;;;;;5.53;2.50;;;17.30;52.90;;;;;;5067868;28;20662;-66
2021/01/18 10:24:36;;;;;;;2.80;2.45;;;17.30;53.00;;;;;;5049180;28;20181;-65
2021/01/18 10:27:06;;;;;;;4.07;2.20;;;17.30;53.00;;;;;;5072370;28;20201;-64
2021/01/18 10:29:32;;;;;;;5.15;2.75;;;17.30;53.00;;;;;;5090175;28;20247;-65
2021/01/18 10:31:58;;;;;;;5.80;2.83;;;17.20;53.10;;;;;;5085473;28;20169;-65
2021/01/18 10:34:29;;;;;;;3.88;2.08;;;17.20;53.10;;;;;;5105733;28;20169;-66
2021/01/18 10:37:18;;;;;;;5.53;2.47;;;17.30;53.10;;;;;;5105482;28;20252;-66
2021/01/18 10:39:47;;;;;;;3.20;2.13;;;17.30;53.00;;;;;;5105770;28;20169;-64
2021/01/18 10:42:20;;;;;;;5.82;2.30;;;17.30;53.00;;;;;;5090859;28;20173;-63
2021/01/18 10:44:53;;;;;;;4.07;2.10;;;17.30;53.00;;;;;;5085355;28;20181;-64
2021/01/18 10:47:23;;;;;;;3.05;2.05;;;17.20;53.00;;;;;;5085455;28;20631;-63
2021/01/18 10:49:52;;;;;;;2.60;2.17;;;17.20;53.10;;;;;;5067865;28;20185;-63
2021/01/18 10:52:18;;;;;;;5.82;2.58;;;17.30;53.20;;;;;;5085242;28;20649;-64
2021/01/18 10:54:57;;;;;;;4.80;2.65;;;17.30;53.50;;;;;;5085458;28;20174;-63
2021/01/18 10:57:23;;;;;;;5.90;3.17;;;17.30;53.30;;;;;;5085382;28;20890;-64
2021/01/18 11:00:14;;;;;;;4.47;2.65;;;17.40;53.30;;;;;;5103856;28;20173;-64
2021/01/18 11:02:41;;;;;;;6.00;2.60;;;17.60;53.10;;;;;;5104972;28;20210;-64
2021/01/18 11:05:10;;;;;;;5.45;2.58;;;17.80;52.70;;;;;;5105308;28;20180;-64
2021/01/18 11:07:36;;;;;;;3.70;1.92;;;18.10;52.40;;;;;;5105334;28;20619;-63
2021/01/18 11:10:03;;;;;;;4.43;2.50;;;18.40;51.80;;;;;;5105146;28;20585;-64
2021/01/18 11:12:32;;;;;;;4.63;2.13;;;18.70;51.40;;;;;;5105012;28;20677;-64
2021/01/18 11:15:03;;;;;;;3.33;1.92;;;19.00;51.00;;;;;;5105417;28;20288;-63
2021/01/18 11:17:29;;;;;;;4.53;2.30;;;19.30;50.40;;;;;;5105072;28;20185;-64
2021/01/18 11:19:54;;;;;;;4.38;2.08;;;19.40;50.20;;;;;;5086970;28;20177;-64
2021/01/18 11:22:20;;;;;;;2.35;1.90;;;19.40;50.20;;;;;;5086926;28;20606;-63
2021/01/18 11:24:46;;;;;;;4.43;2.55;;;19.40;50.30;;;;;;5105239;28;20232;-64
2021/01/18 11:27:12;;;;;;;2.88;1.70;;;19.40;50.40;;;;;;5104889;28;20995;-63
2021/01/18 11:29:37;;;;;;;2.80;2.00;;;19.40;50.30;;;;;;5104736;28;20280;-64
2021/01/18 11:32:03;;;;;;;2.55;1.83;;;19.30;50.40;;;;;;5101711;28;20201;-63
2021/01/18 11:34:29;;;;;;;5.70;2.10;;;19.40;50.30;;;;;;5084666;28;20675;-64
2021/01/18 11:36:55;;;;;;;3.63;2.28;;;19.30;50.40;;;;;;5084483;28;20199;-63
2021/01/18 11:39:20;;;;;;;8.25;2.42;;;19.20;50.40;;;;;;5084715;28;20198;-63
2021/01/18 11:41:46;;;;;;;4.45;1.80;;;19.20;50.50;;;;;;5083914;28;20231;-64
2021/01/18 11:44:11;;;;;;;3.60;1.83;;;19.20;50.50;;;;;;5084164;28;20178;-62
2021/01/18 11:46:37;;;;;;;6.07;1.73;;;19.20;50.40;;;;;;5084192;28;20206;-61
2021/01/18 11:49:03;;;;;;;5.45;1.95;;;19.20;50.60;;;;;;5084400;28;20178;-63
2021/01/18 11:51:28;;;;;;;3.13;1.95;;;19.10;50.70;;;;;;5084239;28;20173;-62
2021/01/18 11:53:54;;;;;;;6.00;2.08;;;19.10;50.70;;;;;;5084230;28;20178;-63
2021/01/18 11:56:27;;;;;;;3.95;2.30;;;19.10;50.70;;;;;;5084105;28;20541;-63
2021/01/18 11:58:53;;;;;;;4.30;2.05;;;19.20;50.80;;;;;;5067302;28;20170;-62
2021/01/18 12:01:18;;;;;;;3.88;2.25;;;19.10;50.90;;;;;;5084143;28;20170;-63
2021/01/18 12:03:44;;;;;;;3.85;1.90;;;19.10;50.80;;;;;;5065975;28;20953;-62
2021/01/18 12:06:10;;;;;;;3.33;1.90;;;19.20;50.90;;;;;;5084157;28;20288;-60
2021/01/18 12:08:35;;;;;;;4.05;2.08;;;19.20;50.90;;;;;;5084106;28;20261;-62
2021/01/18 12:11:01;;;;;;;4.20;1.75;;;19.10;50.90;;;;;;5083893;28;20174;-58
2021/01/18 12:13:27;;;;;;;6.90;2.03;;;19.20;51.00;;;;;;5084099;28;20178;-60
2021/01/18 12:15:52;;;;;;;4.13;2.17;;;19.10;50.90;;;;;;5065733;28;20184;-61
2021/01/18 12:18:18;;;;;;;5.45;2.60;;;19.10;50.90;;;;;;5082971;28;20582;-64
2021/01/18 12:20:43;;;;;;;5.55;2.60;;;19.30;50.70;;;;;;5084073;28;20516;-65
2021/01/18 12:23:09;;;;;;;4.97;2.42;;;19.20;50.70;;;;;;5084003;28;20170;-63
2021/01/18 12:25:35;;;;;;;4.57;2.50;;;19.30;50.70;;;;;;5083746;28;20267;-62
2021/01/18 12:28:00;;;;;;;4.30;1.88;;;19.20;50.70;;;;;;5083524;28;20174;-63
2021/01/18 12:30:26;;;;;;;5.97;2.85;;;19.20;50.90;;;;;;5084044;28;20203;-61
2021/01/18 12:32:52;;;;;;;5.40;2.20;;;19.20;50.90;;;;;;5093446;28;20222;-61
2021/01/18 12:35:17;;;;;;;3.65;2.08;;;19.10;51.00;;;;;;5104322;28;20649;-60
2021/01/18 12:37:43;;;;;;;5.57;1.90;;;19.20;50.90;;;;;;5086469;28;20177;-62
2021/01/18 12:40:09;;;;;;;3.03;2.22;;;19.10;50.90;;;;;;5104279;28;20170;-62
2021/01/18 12:42:41;;;;;;;4.43;2.10;;;19.10;51.00;;;;;;5085873;28;20268;-61
2021/01/18 12:45:08;;;;;;;3.60;2.08;;;19.20;51.10;;;;;;5072895;28;20618;-61
2021/01/18 12:47:34;;;;;;;3.90;1.95;;;19.10;51.10;;;;;;5108017;28;20172;-61
2021/01/18 12:49:59;;;;;;;5.28;1.83;;;19.20;51.20;;;;;;5108063;28;20623;-61
2021/01/18 12:52:25;;;;;;;3.58;1.70;;;19.20;51.20;;;;;;5107964;28;20535;-62
2021/01/18 12:54:50;;;;;;;4.72;2.65;;;19.20;51.20;;;;;;5107876;28;20530;-60
2021/01/18 12:57:16;;;;;;;3.28;1.70;;;19.20;51.10;;;;;;5107987;28;20638;-62
2021/01/18 12:59:41;;;;;;;4.13;2.33;;;19.20;51.10;;;;;;5107999;28;20579;-62
2021/01/18 13:02:07;;;;;;;4.05;1.98;;;19.20;51.20;;;;;;5107931;28;20279;-61
2021/01/18 13:04:33;;;;;;;2.83;1.67;;;19.20;51.30;;;;;;5108389;28;20226;-62